sensor_id;sensor_type;location;lat;lon;timestamp;temperature;humidity
22827;DHT22;11580;52.562;13.418;2023-08-06T00:01:39;21.50;36.60
22827;DHT22;11580;52.562;13.418;2023-08-06T00:04:06;21.50;36.10
22827;DHT22;11580;52.562;13.418;2023-08-06T00:06:35;21.50;36.90
22827;DHT22;11580;52.562;13.418;2023-08-06T00:09:02;21.50;36.50
22827;DHT22;11580;52.562;13.418;2023-08-06T00:11:29;21.50;36.30
22827;DHT22;11580;52.562;13.418;2023-08-06T00:13:56;21.50;36.30
22827;DHT22;11580;52.562;13.418;2023-08-06T00:16:24;21.50;36.40
22827;DHT22;11580;52.562;13.418;2023-08-06T00:18:51;21.50;37.20
22827;DHT22;11580;52.562;13.418;2023-08-06T00:21:18;21.50;36.40
22827;DHT22;11580;52.562;13.418;2023-08-06T00:23:46;21.50;36.50
22827;DHT22;11580;52.562;13.418;2023-08-06T00:26:14;21.50;36.80
22827;DHT22;11580;52.562;13.418;2023-08-06T00:28:41;21.50;37.30
22827;DHT22;11580;52.562;13.418;2023-08-06T00:31:08;21.50;36.60
22827;DHT22;11580;52.562;13.418;2023-08-06T00:33:35;21.50;36.70
22827;DHT22;11580;52.562;13.418;2023-08-06T00:36:02;21.40;36.60
22827;DHT22;11580;52.562;13.418;2023-08-06T00:38:29;21.40;36.70
22827;DHT22;11580;52.562;13.418;2023-08-06T00:40:58;21.40;36.80
22827;DHT22;11580;52.562;13.418;2023-08-06T00:43:25;21.40;37.10
22827;DHT22;11580;52.562;13.418;2023-08-06T00:45:52;21.40;36.90
22827;DHT22;11580;52.562;13.418;2023-08-06T00:48:20;21.40;36.90
22827;DHT22;11580;52.562;13.418;2023-08-06T00:50:48;21.40;37.70
22827;DHT22;11580;52.562;13.418;2023-08-06T00:53:15;21.40;37.00
22827;DHT22;11580;52.562;13.418;2023-08-06T00:55:44;21.40;37.00
22827;DHT22;11580;52.562;13.418;2023-08-06T00:58:14;21.40;37.40
22827;DHT22;11580;52.562;13.418;2023-08-06T01:00:43;21.40;37.40
22827;DHT22;11580;52.562;13.418;2023-08-06T01:03:10;21.50;37.10
22827;DHT22;11580;52.562;13.418;2023-08-06T01:05:37;21.40;37.00
22827;DHT22;11580;52.562;13.418;2023-08-06T01:08:15;21.40;37.10
22827;DHT22;11580;52.562;13.418;2023-08-06T01:10:58;21.40;37.80
22827;DHT22;11580;52.562;13.418;2023-08-06T01:13:42;21.40;37.80
22827;DHT22;11580;52.562;13.418;2023-08-06T01:16:15;21.40;37.80
22827;DHT22;11580;52.562;13.418;2023-08-06T01:18:44;21.40;37.80
22827;DHT22;11580;52.562;13.418;2023-08-06T01:21:16;21.40;37.30
22827;DHT22;11580;52.562;13.418;2023-08-06T01:23:44;21.40;37.80
22827;DHT22;11580;52.562;13.418;2023-08-06T01:26:17;21.40;37.40
22827;DHT22;11580;52.562;13.418;2023-08-06T01:28:58;21.50;37.90
22827;DHT22;11580;52.562;13.418;2023-08-06T01:31:32;21.50;37.90
22827;DHT22;11580;52.562;13.418;2023-08-06T01:34:05;21.50;38.60
22827;DHT22;11580;52.562;13.418;2023-08-06T01:36:38;21.50;37.90
22827;DHT22;11580;52.562;13.418;2023-08-06T01:39:05;21.50;37.70
22827;DHT22;11580;52.562;13.418;2023-08-06T01:41:33;21.50;37.30
22827;DHT22;11580;52.562;13.418;2023-08-06T01:44:00;21.50;38.00
22827;DHT22;11580;52.562;13.418;2023-08-06T01:46:27;21.50;37.20
22827;DHT22;11580;52.562;13.418;2023-08-06T01:48:54;21.50;37.10
22827;DHT22;11580;52.562;13.418;2023-08-06T01:51:21;21.50;37.10
22827;DHT22;11580;52.562;13.418;2023-08-06T01:53:50;21.50;37.10
22827;DHT22;11580;52.562;13.418;2023-08-06T01:56:18;21.50;37.40
22827;DHT22;11580;52.562;13.418;2023-08-06T01:58:45;21.40;37.10
22827;DHT22;11580;52.562;13.418;2023-08-06T02:01:12;21.40;37.20
22827;DHT22;11580;52.562;13.418;2023-08-06T02:03:39;21.40;37.30
22827;DHT22;11580;52.562;13.418;2023-08-06T02:06:06;21.40;37.40
22827;DHT22;11580;52.562;13.418;2023-08-06T02:08:33;21.40;37.60
22827;DHT22;11580;52.562;13.418;2023-08-06T02:11:02;21.40;37.80
22827;DHT22;11580;52.562;13.418;2023-08-06T02:13:30;21.30;38.40
22827;DHT22;11580;52.562;13.418;2023-08-06T02:15:57;21.30;37.80
22827;DHT22;11580;52.562;13.418;2023-08-06T02:18:24;21.30;37.70
22827;DHT22;11580;52.562;13.418;2023-08-06T02:20:55;21.30;38.40
22827;DHT22;11580;52.562;13.418;2023-08-06T02:23:24;21.30;37.90
22827;DHT22;11580;52.562;13.418;2023-08-06T02:25:57;21.30;37.70
22827;DHT22;11580;52.562;13.418;2023-08-06T02:28:27;21.20;38.40
22827;DHT22;11580;52.562;13.418;2023-08-06T02:30:54;21.20;37.70
22827;DHT22;11580;52.562;13.418;2023-08-06T02:33:21;21.20;37.60
22827;DHT22;11580;52.562;13.418;2023-08-06T02:35:49;21.20;37.60
22827;DHT22;11580;52.562;13.418;2023-08-06T02:38:16;21.20;37.60
22827;DHT22;11580;52.562;13.418;2023-08-06T02:40:43;21.20;37.80
22827;DHT22;11580;52.562;13.418;2023-08-06T02:43:11;21.20;38.00
22827;DHT22;11580;52.562;13.418;2023-08-06T02:45:40;21.10;37.90
22827;DHT22;11580;52.562;13.418;2023-08-06T02:48:08;21.10;38.30
22827;DHT22;11580;52.562;13.418;2023-08-06T02:50:39;21.10;38.00
22827;DHT22;11580;52.562;13.418;2023-08-06T02:53:08;21.10;38.60
22827;DHT22;11580;52.562;13.418;2023-08-06T02:55:36;21.10;38.00
22827;DHT22;11580;52.562;13.418;2023-08-06T02:58:10;21.10;38.00
22827;DHT22;11580;52.562;13.418;2023-08-06T03:00:44;21.10;38.10
22827;DHT22;11580;52.562;13.418;2023-08-06T03:03:12;21.00;38.30
22827;DHT22;11580;52.562;13.418;2023-08-06T03:05:51;21.00;38.10
22827;DHT22;11580;52.562;13.418;2023-08-06T03:08:26;21.00;38.90
22827;DHT22;11580;52.562;13.418;2023-08-06T03:10:53;21.00;38.10
22827;DHT22;11580;52.562;13.418;2023-08-06T03:13:21;21.00;38.20
22827;DHT22;11580;52.562;13.418;2023-08-06T03:15:53;21.00;38.30
22827;DHT22;11580;52.562;13.418;2023-08-06T03:18:21;21.00;39.00
22827;DHT22;11580;52.562;13.418;2023-08-06T03:20:50;21.00;38.30
22827;DHT22;11580;52.562;13.418;2023-08-06T03:23:17;21.00;38.30
22827;DHT22;11580;52.562;13.418;2023-08-06T03:25:45;21.00;38.30
22827;DHT22;11580;52.562;13.418;2023-08-06T03:28:13;20.90;38.30
22827;DHT22;11580;52.562;13.418;2023-08-06T03:30:42;20.90;38.50
22827;DHT22;11580;52.562;13.418;2023-08-06T03:33:13;21.00;38.60
22827;DHT22;11580;52.562;13.418;2023-08-06T03:35:40;20.90;39.60
22827;DHT22;11580;52.562;13.418;2023-08-06T03:38:07;20.90;38.70
22827;DHT22;11580;52.562;13.418;2023-08-06T03:40:35;20.90;38.90
22827;DHT22;11580;52.562;13.418;2023-08-06T03:43:02;20.90;39.10
22827;DHT22;11580;52.562;13.418;2023-08-06T03:45:29;20.90;39.00
22827;DHT22;11580;52.562;13.418;2023-08-06T03:47:57;20.90;39.20
22827;DHT22;11580;52.562;13.418;2023-08-06T03:50:26;20.90;39.20
22827;DHT22;11580;52.562;13.418;2023-08-06T03:52:53;20.90;39.50
22827;DHT22;11580;52.562;13.418;2023-08-06T03:55:21;20.90;39.30
22827;DHT22;11580;52.562;13.418;2023-08-06T03:57:48;20.90;40.10
22827;DHT22;11580;52.562;13.418;2023-08-06T04:00:15;20.80;39.30
22827;DHT22;11580;52.562;13.418;2023-08-06T04:02:48;20.90;39.50
22827;DHT22;11580;52.562;13.418;2023-08-06T04:05:16;20.80;39.40
22827;DHT22;11580;52.562;13.418;2023-08-06T04:07:45;20.90;39.70
22827;DHT22;11580;52.562;13.418;2023-08-06T04:10:13;20.80;39.90
22827;DHT22;11580;52.562;13.418;2023-08-06T04:12:40;20.80;39.70
22827;DHT22;11580;52.562;13.418;2023-08-06T04:15:08;20.80;39.70
22827;DHT22;11580;52.562;13.418;2023-08-06T04:17:35;20.80;39.90
22827;DHT22;11580;52.562;13.418;2023-08-06T04:20:04;20.80;39.80
22827;DHT22;11580;52.562;13.418;2023-08-06T04:22:32;20.80;39.80
22827;DHT22;11580;52.562;13.418;2023-08-06T04:25:01;20.90;39.90
22827;DHT22;11580;52.562;13.418;2023-08-06T04:27:28;20.90;40.10
22827;DHT22;11580;52.562;13.418;2023-08-06T04:29:56;20.90;40.00
22827;DHT22;11580;52.562;13.418;2023-08-06T04:32:24;20.90;40.10
22827;DHT22;11580;52.562;13.418;2023-08-06T04:34:55;20.90;40.10
22827;DHT22;11580;52.562;13.418;2023-08-06T04:37:23;20.90;40.40
22827;DHT22;11580;52.562;13.418;2023-08-06T04:39:51;20.90;40.00
22827;DHT22;11580;52.562;13.418;2023-08-06T04:42:20;21.00;40.10
22827;DHT22;11580;52.562;13.418;2023-08-06T04:44:47;21.00;41.10
22827;DHT22;11580;52.562;13.418;2023-08-06T04:47:14;21.00;40.20
22827;DHT22;11580;52.562;13.418;2023-08-06T04:49:41;21.00;40.20
22827;DHT22;11580;52.562;13.418;2023-08-06T04:52:08;21.00;40.20
22827;DHT22;11580;52.562;13.418;2023-08-06T04:54:36;21.00;40.20
22827;DHT22;11580;52.562;13.418;2023-08-06T04:57:03;21.10;40.20
22827;DHT22;11580;52.562;13.418;2023-08-06T04:59:32;21.10;40.20
22827;DHT22;11580;52.562;13.418;2023-08-06T05:01:59;21.10;40.50
22827;DHT22;11580;52.562;13.418;2023-08-06T05:04:27;21.20;40.10
22827;DHT22;11580;52.562;13.418;2023-08-06T05:06:54;21.20;40.10
22827;DHT22;11580;52.562;13.418;2023-08-06T05:09:21;21.20;40.10
22827;DHT22;11580;52.562;13.418;2023-08-06T05:11:49;21.20;40.00
22827;DHT22;11580;52.562;13.418;2023-08-06T05:14:16;21.30;40.00
22827;DHT22;11580;52.562;13.418;2023-08-06T05:16:45;21.30;40.00
22827;DHT22;11580;52.562;13.418;2023-08-06T05:19:12;21.30;40.70
22827;DHT22;11580;52.562;13.418;2023-08-06T05:21:39;21.40;39.90
22827;DHT22;11580;52.562;13.418;2023-08-06T05:24:06;21.40;39.70
22827;DHT22;11580;52.562;13.418;2023-08-06T05:26:33;21.40;39.80
22827;DHT22;11580;52.562;13.418;2023-08-06T05:29:00;21.50;39.80
22827;DHT22;11580;52.562;13.418;2023-08-06T05:31:28;21.50;39.60
22827;DHT22;11580;52.562;13.418;2023-08-06T05:33:56;21.50;39.60
22827;DHT22;11580;52.562;13.418;2023-08-06T05:36:23;21.60;39.60
22827;DHT22;11580;52.562;13.418;2023-08-06T05:38:51;21.60;40.10
22827;DHT22;11580;52.562;13.418;2023-08-06T05:41:18;21.60;40.00
22827;DHT22;11580;52.562;13.418;2023-08-06T05:43:45;21.70;39.40
22827;DHT22;11580;52.562;13.418;2023-08-06T05:46:12;21.80;39.60
22827;DHT22;11580;52.562;13.418;2023-08-06T05:48:39;21.80;39.50
22827;DHT22;11580;52.562;13.418;2023-08-06T05:51:08;21.80;39.50
22827;DHT22;11580;52.562;13.418;2023-08-06T05:53:38;21.90;39.70
22827;DHT22;11580;52.562;13.418;2023-08-06T05:56:05;21.90;39.60
22827;DHT22;11580;52.562;13.418;2023-08-06T05:58:32;22.00;39.70
22827;DHT22;11580;52.562;13.418;2023-08-06T06:00:59;22.10;39.80
22827;DHT22;11580;52.562;13.418;2023-08-06T06:03:26;22.10;40.20
22827;DHT22;11580;52.562;13.418;2023-08-06T06:05:54;22.20;39.40
22827;DHT22;11580;52.562;13.418;2023-08-06T06:08:22;22.20;40.30
22827;DHT22;11580;52.562;13.418;2023-08-06T06:10:49;22.20;39.30
22827;DHT22;11580;52.562;13.418;2023-08-06T06:13:16;22.20;39.30
22827;DHT22;11580;52.562;13.418;2023-08-06T06:15:43;22.20;39.00
22827;DHT22;11580;52.562;13.418;2023-08-06T06:18:12;22.20;39.30
22827;DHT22;11580;52.562;13.418;2023-08-06T06:20:40;22.10;39.20
22827;DHT22;11580;52.562;13.418;2023-08-06T06:23:07;22.10;39.90
22827;DHT22;11580;52.562;13.418;2023-08-06T06:25:35;22.10;39.80
22827;DHT22;11580;52.562;13.418;2023-08-06T06:28:03;22.10;39.90
22827;DHT22;11580;52.562;13.418;2023-08-06T06:30:30;22.10;40.00
22827;DHT22;11580;52.562;13.418;2023-08-06T06:32:57;22.10;40.30
22827;DHT22;11580;52.562;13.418;2023-08-06T06:35:24;22.10;40.00
22827;DHT22;11580;52.562;13.418;2023-08-06T06:37:51;22.10;40.30
22827;DHT22;11580;52.562;13.418;2023-08-06T06:40:19;22.10;40.60
22827;DHT22;11580;52.562;13.418;2023-08-06T06:42:48;22.20;40.60
22827;DHT22;11580;52.562;13.418;2023-08-06T06:45:15;22.20;40.40
22827;DHT22;11580;52.562;13.418;2023-08-06T06:47:42;22.20;40.40
22827;DHT22;11580;52.562;13.418;2023-08-06T06:50:10;22.20;40.00
22827;DHT22;11580;52.562;13.418;2023-08-06T06:52:37;22.30;40.30
22827;DHT22;11580;52.562;13.418;2023-08-06T06:55:05;22.30;40.50
22827;DHT22;11580;52.562;13.418;2023-08-06T06:57:32;22.40;40.30
22827;DHT22;11580;52.562;13.418;2023-08-06T07:00:01;22.40;40.30
22827;DHT22;11580;52.562;13.418;2023-08-06T07:02:28;22.50;40.70
22827;DHT22;11580;52.562;13.418;2023-08-06T07:04:55;22.50;40.60
22827;DHT22;11580;52.562;13.418;2023-08-06T07:07:22;22.60;40.70
22827;DHT22;11580;52.562;13.418;2023-08-06T07:09:50;22.60;40.70
22827;DHT22;11580;52.562;13.418;2023-08-06T07:12:17;22.70;40.60
22827;DHT22;11580;52.562;13.418;2023-08-06T07:14:44;22.70;40.20
22827;DHT22;11580;52.562;13.418;2023-08-06T07:17:12;22.80;39.80
22827;DHT22;11580;52.562;13.418;2023-08-06T07:19:39;22.90;40.50
22827;DHT22;11580;52.562;13.418;2023-08-06T07:22:07;22.90;39.80
22827;DHT22;11580;52.562;13.418;2023-08-06T07:24:34;23.00;39.50
22827;DHT22;11580;52.562;13.418;2023-08-06T07:27:01;23.00;39.20
22827;DHT22;11580;52.562;13.418;2023-08-06T07:29:28;23.10;39.20
22827;DHT22;11580;52.562;13.418;2023-08-06T07:31:55;23.10;39.30
22827;DHT22;11580;52.562;13.418;2023-08-06T07:34:24;23.10;39.20
22827;DHT22;11580;52.562;13.418;2023-08-06T07:36:51;23.10;40.00
22827;DHT22;11580;52.562;13.418;2023-08-06T07:39:18;23.10;39.20
22827;DHT22;11580;52.562;13.418;2023-08-06T07:41:45;23.20;39.30
22827;DHT22;11580;52.562;13.418;2023-08-06T07:44:12;23.20;39.30
22827;DHT22;11580;52.562;13.418;2023-08-06T07:46:40;23.20;39.30
22827;DHT22;11580;52.562;13.418;2023-08-06T07:49:08;23.20;39.00
22827;DHT22;11580;52.562;13.418;2023-08-06T07:51:38;23.20;39.30
22827;DHT22;11580;52.562;13.418;2023-08-06T07:54:06;23.20;39.30
22827;DHT22;11580;52.562;13.418;2023-08-06T07:56:33;23.20;39.30
22827;DHT22;11580;52.562;13.418;2023-08-06T07:59:01;23.20;39.00
22827;DHT22;11580;52.562;13.418;2023-08-06T08:01:28;23.20;39.70
22827;DHT22;11580;52.562;13.418;2023-08-06T08:03:55;23.20;39.30
22827;DHT22;11580;52.562;13.418;2023-08-06T08:06:23;23.10;39.80
22827;DHT22;11580;52.562;13.418;2023-08-06T08:08:51;23.10;40.00
22827;DHT22;11580;52.562;13.418;2023-08-06T08:11:18;23.10;39.20
22827;DHT22;11580;52.562;13.418;2023-08-06T08:13:46;23.10;39.30
22827;DHT22;11580;52.562;13.418;2023-08-06T08:16:14;23.20;39.30
22827;DHT22;11580;52.562;13.418;2023-08-06T08:18:41;23.20;39.30
22827;DHT22;11580;52.562;13.418;2023-08-06T08:21:08;23.20;39.30
22827;DHT22;11580;52.562;13.418;2023-08-06T08:23:35;23.30;39.40
22827;DHT22;11580;52.562;13.418;2023-08-06T08:26:03;23.30;40.10
22827;DHT22;11580;52.562;13.418;2023-08-06T08:28:31;23.30;39.00
22827;DHT22;11580;52.562;13.418;2023-08-06T08:30:58;23.40;39.80
22827;DHT22;11580;52.562;13.418;2023-08-06T08:33:25;23.40;39.10
22827;DHT22;11580;52.562;13.418;2023-08-06T08:35:52;23.40;39.10
22827;DHT22;11580;52.562;13.418;2023-08-06T08:38:19;23.50;39.00
22827;DHT22;11580;52.562;13.418;2023-08-06T08:40:47;23.50;38.80
22827;DHT22;11580;52.562;13.418;2023-08-06T08:43:21;23.60;38.60
22827;DHT22;11580;52.562;13.418;2023-08-06T08:45:49;23.60;38.30
22827;DHT22;11580;52.562;13.418;2023-08-06T08:48:18;23.70;38.40
22827;DHT22;11580;52.562;13.418;2023-08-06T08:50:47;23.80;38.30
22827;DHT22;11580;52.562;13.418;2023-08-06T08:53:16;23.90;38.00
22827;DHT22;11580;52.562;13.418;2023-08-06T08:55:46;23.90;37.80
22827;DHT22;11580;52.562;13.418;2023-08-06T08:58:14;23.90;38.50
22827;DHT22;11580;52.562;13.418;2023-08-06T09:00:46;24.00;37.80
22827;DHT22;11580;52.562;13.418;2023-08-06T09:03:14;24.00;37.70
22827;DHT22;11580;52.562;13.418;2023-08-06T09:05:44;24.00;37.80
22827;DHT22;11580;52.562;13.418;2023-08-06T09:08:12;24.10;37.70
22827;DHT22;11580;52.562;13.418;2023-08-06T09:10:44;24.10;38.50
22827;DHT22;11580;52.562;13.418;2023-08-06T09:13:15;24.10;38.20
22827;DHT22;11580;52.562;13.418;2023-08-06T09:15:44;24.10;37.30
22827;DHT22;11580;52.562;13.418;2023-08-06T09:18:12;24.10;37.60
22827;DHT22;11580;52.562;13.418;2023-08-06T09:20:39;24.10;37.90
22827;DHT22;11580;52.562;13.418;2023-08-06T09:23:10;24.10;37.30
22827;DHT22;11580;52.562;13.418;2023-08-06T09:25:38;24.10;37.10
22827;DHT22;11580;52.562;13.418;2023-08-06T09:28:06;24.10;37.20
22827;DHT22;11580;52.562;13.418;2023-08-06T09:30:36;24.20;37.30
22827;DHT22;11580;52.562;13.418;2023-08-06T09:33:08;24.20;37.10
22827;DHT22;11580;52.562;13.418;2023-08-06T09:35:37;24.20;37.10
22827;DHT22;11580;52.562;13.418;2023-08-06T09:38:09;24.20;37.10
22827;DHT22;11580;52.562;13.418;2023-08-06T09:40:38;24.20;37.10
22827;DHT22;11580;52.562;13.418;2023-08-06T09:43:06;24.20;38.00
22827;DHT22;11580;52.562;13.418;2023-08-06T09:45:35;24.20;37.20
22827;DHT22;11580;52.562;13.418;2023-08-06T09:48:05;24.20;37.10
22827;DHT22;11580;52.562;13.418;2023-08-06T09:50:34;24.20;37.20
22827;DHT22;11580;52.562;13.418;2023-08-06T09:53:03;24.20;37.30
22827;DHT22;11580;52.562;13.418;2023-08-06T09:55:32;24.20;37.50
22827;DHT22;11580;52.562;13.418;2023-08-06T09:58:00;24.20;37.40
22827;DHT22;11580;52.562;13.418;2023-08-06T10:00:28;24.20;37.30
22827;DHT22;11580;52.562;13.418;2023-08-06T10:03:00;24.20;37.80
22827;DHT22;11580;52.562;13.418;2023-08-06T10:05:31;24.20;36.60
22827;DHT22;11580;52.562;13.418;2023-08-06T10:08:00;24.20;34.90
22827;DHT22;11580;52.562;13.418;2023-08-06T10:10:29;24.20;35.10
22827;DHT22;11580;52.562;13.418;2023-08-06T10:12:58;24.20;35.10
22827;DHT22;11580;52.562;13.418;2023-08-06T10:15:30;24.20;34.40
22827;DHT22;11580;52.562;13.418;2023-08-06T10:17:59;24.30;36.10
22827;DHT22;11580;52.562;13.418;2023-08-06T10:20:33;24.20;35.00
22827;DHT22;11580;52.562;13.418;2023-08-06T10:23:02;24.20;34.20
22827;DHT22;11580;52.562;13.418;2023-08-06T10:25:32;24.20;34.30
22827;DHT22;11580;52.562;13.418;2023-08-06T10:28:06;24.20;33.90
22827;DHT22;11580;52.562;13.418;2023-08-06T10:30:41;24.20;34.30
22827;DHT22;11580;52.562;13.418;2023-08-06T10:33:10;24.20;34.60
22827;DHT22;11580;52.562;13.418;2023-08-06T10:35:41;24.20;33.90
22827;DHT22;11580;52.562;13.418;2023-08-06T10:38:11;24.20;33.00
22827;DHT22;11580;52.562;13.418;2023-08-06T10:40:40;24.20;33.30
22827;DHT22;11580;52.562;13.418;2023-08-06T10:43:25;24.30;33.40
22827;DHT22;11580;52.562;13.418;2023-08-06T10:45:54;24.30;33.20
22827;DHT22;11580;52.562;13.418;2023-08-06T10:48:29;24.30;33.60
22827;DHT22;11580;52.562;13.418;2023-08-06T10:51:00;24.30;32.90
22827;DHT22;11580;52.562;13.418;2023-08-06T10:53:28;24.30;33.50
22827;DHT22;11580;52.562;13.418;2023-08-06T10:55:56;24.30;33.90
22827;DHT22;11580;52.562;13.418;2023-08-06T10:58:23;24.30;33.80
22827;DHT22;11580;52.562;13.418;2023-08-06T11:00:50;24.30;33.80
22827;DHT22;11580;52.562;13.418;2023-08-06T11:03:17;24.30;34.70
22827;DHT22;11580;52.562;13.418;2023-08-06T11:05:49;24.20;33.90
22827;DHT22;11580;52.562;13.418;2023-08-06T11:08:25;24.20;33.80
22827;DHT22;11580;52.562;13.418;2023-08-06T11:10:53;24.20;34.10
22827;DHT22;11580;52.562;13.418;2023-08-06T11:13:20;24.10;34.40
22827;DHT22;11580;52.562;13.418;2023-08-06T11:15:47;24.00;34.60
22827;DHT22;11580;52.562;13.418;2023-08-06T11:18:14;24.10;34.80
22827;DHT22;11580;52.562;13.418;2023-08-06T11:20:42;24.00;34.80
22827;DHT22;11580;52.562;13.418;2023-08-06T11:23:10;24.00;35.00
22827;DHT22;11580;52.562;13.418;2023-08-06T11:25:44;24.00;35.10
22827;DHT22;11580;52.562;13.418;2023-08-06T11:28:11;24.00;36.10
22827;DHT22;11580;52.562;13.418;2023-08-06T11:30:38;24.00;34.80
22827;DHT22;11580;52.562;13.418;2023-08-06T11:33:07;24.00;34.80
22827;DHT22;11580;52.562;13.418;2023-08-06T11:35:35;24.00;35.90
22827;DHT22;11580;52.562;13.418;2023-08-06T11:38:04;24.00;35.80
22827;DHT22;11580;52.562;13.418;2023-08-06T11:40:31;24.00;35.60
22827;DHT22;11580;52.562;13.418;2023-08-06T11:43:00;23.90;35.10
22827;DHT22;11580;52.562;13.418;2023-08-06T11:45:28;23.90;35.00
22827;DHT22;11580;52.562;13.418;2023-08-06T11:47:55;23.90;35.00
22827;DHT22;11580;52.562;13.418;2023-08-06T11:50:23;23.90;36.10
22827;DHT22;11580;52.562;13.418;2023-08-06T11:52:53;23.90;35.80
22827;DHT22;11580;52.562;13.418;2023-08-06T11:55:24;23.90;35.60
22827;DHT22;11580;52.562;13.418;2023-08-06T11:57:52;24.10;35.70
22827;DHT22;11580;52.562;13.418;2023-08-06T12:00:23;23.90;36.60
22827;DHT22;11580;52.562;13.418;2023-08-06T12:02:52;23.90;36.40
22827;DHT22;11580;52.562;13.418;2023-08-06T12:05:21;23.80;36.20
22827;DHT22;11580;52.562;13.418;2023-08-06T12:07:51;23.80;36.40
22827;DHT22;11580;52.562;13.418;2023-08-06T12:10:19;23.80;37.20
22827;DHT22;11580;52.562;13.418;2023-08-06T12:12:47;23.80;36.70
22827;DHT22;11580;52.562;13.418;2023-08-06T12:15:16;23.80;36.70
22827;DHT22;11580;52.562;13.418;2023-08-06T12:17:44;23.80;36.70
22827;DHT22;11580;52.562;13.418;2023-08-06T12:20:12;23.80;36.70
22827;DHT22;11580;52.562;13.418;2023-08-06T12:22:39;23.80;36.60
22827;DHT22;11580;52.562;13.418;2023-08-06T12:25:07;23.80;36.70
22827;DHT22;11580;52.562;13.418;2023-08-06T12:27:38;23.80;36.90
22827;DHT22;11580;52.562;13.418;2023-08-06T12:30:06;23.80;36.50
22827;DHT22;11580;52.562;13.418;2023-08-06T12:32:34;23.80;36.40
22827;DHT22;11580;52.562;13.418;2023-08-06T12:35:04;23.80;36.20
22827;DHT22;11580;52.562;13.418;2023-08-06T12:37:33;23.80;36.40
22827;DHT22;11580;52.562;13.418;2023-08-06T12:40:00;23.90;37.30
22827;DHT22;11580;52.562;13.418;2023-08-06T12:42:28;23.80;36.40
22827;DHT22;11580;52.562;13.418;2023-08-06T12:44:55;23.90;36.40
22827;DHT22;11580;52.562;13.418;2023-08-06T12:47:22;23.90;36.30
22827;DHT22;11580;52.562;13.418;2023-08-06T12:49:49;23.90;36.40
22827;DHT22;11580;52.562;13.418;2023-08-06T12:52:18;23.90;36.80
22827;DHT22;11580;52.562;13.418;2023-08-06T12:54:45;23.90;36.10
22827;DHT22;11580;52.562;13.418;2023-08-06T12:57:12;23.90;36.10
22827;DHT22;11580;52.562;13.418;2023-08-06T12:59:40;23.90;36.10
22827;DHT22;11580;52.562;13.418;2023-08-06T13:02:07;23.90;36.10
22827;DHT22;11580;52.562;13.418;2023-08-06T13:04:34;23.90;36.30
22827;DHT22;11580;52.562;13.418;2023-08-06T13:07:01;23.90;36.80
22827;DHT22;11580;52.562;13.418;2023-08-06T13:09:30;23.90;36.90
22827;DHT22;11580;52.562;13.418;2023-08-06T13:11:58;23.90;37.10
22827;DHT22;11580;52.562;13.418;2023-08-06T13:14:25;23.80;36.90
22827;DHT22;11580;52.562;13.418;2023-08-06T13:16:54;23.80;37.30
22827;DHT22;11580;52.562;13.418;2023-08-06T13:19:21;23.80;36.50
22827;DHT22;11580;52.562;13.418;2023-08-06T13:22:02;23.70;36.80
22827;DHT22;11580;52.562;13.418;2023-08-06T13:24:32;23.70;37.10
22827;DHT22;11580;52.562;13.418;2023-08-06T13:27:00;23.70;37.20
22827;DHT22;11580;52.562;13.418;2023-08-06T13:29:27;23.60;36.50
22827;DHT22;11580;52.562;13.418;2023-08-06T13:31:54;23.60;36.40
22827;DHT22;11580;52.562;13.418;2023-08-06T13:34:21;23.50;36.60
22827;DHT22;11580;52.562;13.418;2023-08-06T13:36:49;23.50;36.90
22827;DHT22;11580;52.562;13.418;2023-08-06T13:39:16;23.40;37.10
22827;DHT22;11580;52.562;13.418;2023-08-06T13:41:45;23.40;37.30
22827;DHT22;11580;52.562;13.418;2023-08-06T13:44:12;23.30;37.90
22827;DHT22;11580;52.562;13.418;2023-08-06T13:46:41;23.30;37.20
22827;DHT22;11580;52.562;13.418;2023-08-06T13:49:09;23.30;37.90
22827;DHT22;11580;52.562;13.418;2023-08-06T13:51:36;23.20;37.20
22827;DHT22;11580;52.562;13.418;2023-08-06T13:54:04;23.20;37.60
22827;DHT22;11580;52.562;13.418;2023-08-06T13:56:32;23.20;37.00
22827;DHT22;11580;52.562;13.418;2023-08-06T13:59:01;23.10;37.00
22827;DHT22;11580;52.562;13.418;2023-08-06T14:01:28;23.00;37.10
22827;DHT22;11580;52.562;13.418;2023-08-06T14:03:55;23.00;37.10
22827;DHT22;11580;52.562;13.418;2023-08-06T14:06:22;22.90;37.30
22827;DHT22;11580;52.562;13.418;2023-08-06T14:08:49;22.80;37.20
22827;DHT22;11580;52.562;13.418;2023-08-06T14:11:17;22.80;37.90
22827;DHT22;11580;52.562;13.418;2023-08-06T14:13:44;22.70;37.20
22827;DHT22;11580;52.562;13.418;2023-08-06T14:16:12;22.70;38.20
22827;DHT22;11580;52.562;13.418;2023-08-06T14:18:40;22.60;38.00
22827;DHT22;11580;52.562;13.418;2023-08-06T14:21:07;22.60;38.10
22827;DHT22;11580;52.562;13.418;2023-08-06T14:23:34;22.50;38.50
22827;DHT22;11580;52.562;13.418;2023-08-06T14:26:01;22.50;38.70
22827;DHT22;11580;52.562;13.418;2023-08-06T14:28:28;22.40;38.40
22827;DHT22;11580;52.562;13.418;2023-08-06T14:30:56;22.40;38.60
22827;DHT22;11580;52.562;13.418;2023-08-06T14:33:24;22.40;38.60
22827;DHT22;11580;52.562;13.418;2023-08-06T14:35:51;22.30;39.30
22827;DHT22;11580;52.562;13.418;2023-08-06T14:38:18;22.20;39.20
22827;DHT22;11580;52.562;13.418;2023-08-06T14:40:46;22.20;38.50
22827;DHT22;11580;52.562;13.418;2023-08-06T14:43:13;22.10;38.40
22827;DHT22;11580;52.562;13.418;2023-08-06T14:45:40;22.10;38.40
22827;DHT22;11580;52.562;13.418;2023-08-06T14:48:07;22.00;38.40
22827;DHT22;11580;52.562;13.418;2023-08-06T14:50:36;22.00;38.30
22827;DHT22;11580;52.562;13.418;2023-08-06T14:53:04;21.90;39.00
22827;DHT22;11580;52.562;13.418;2023-08-06T14:55:32;21.90;39.00
22827;DHT22;11580;52.562;13.418;2023-08-06T14:58:01;21.80;39.20
22827;DHT22;11580;52.562;13.418;2023-08-06T15:00:28;21.80;39.20
22827;DHT22;11580;52.562;13.418;2023-08-06T15:02:56;21.80;39.60
22827;DHT22;11580;52.562;13.418;2023-08-06T15:05:24;21.70;40.50
22827;DHT22;11580;52.562;13.418;2023-08-06T15:07:52;21.70;39.60
22827;DHT22;11580;52.562;13.418;2023-08-06T15:10:20;21.70;39.50
22827;DHT22;11580;52.562;13.418;2023-08-06T15:12:48;21.70;39.40
22827;DHT22;11580;52.562;13.418;2023-08-06T15:15:15;21.70;39.70
22827;DHT22;11580;52.562;13.418;2023-08-06T15:17:43;21.70;39.80
22827;DHT22;11580;52.562;13.418;2023-08-06T15:20:11;21.70;40.00
22827;DHT22;11580;52.562;13.418;2023-08-06T15:22:38;21.70;40.10